createdAt,value
2016-06-24T00:00:21.078Z,28.05
2016-06-24T00:01:21.127Z,28.05
2016-06-24T00:02:21.074Z,28.02
2016-06-24T00:03:21.099Z,28.03
2016-06-24T00:04:21.088Z,28.05
2016-06-24T00:05:21.088Z,28.01
2016-06-24T00:06:21.096Z,27.94
2016-06-24T00:07:21.088Z,27.99
2016-06-24T00:08:21.104Z,28.02
2016-06-24T00:09:21.128Z,27.94
2016-06-24T00:10:21.298Z,27.94
2016-06-24T00:11:21.112Z,27.94
2016-06-24T00:12:21.115Z,27.98
2016-06-24T00:13:21.301Z,27.9
2016-06-24T00:14:21.113Z,27.99
2016-06-24T00:15:21.119Z,27.9
2016-06-24T00:16:21.332Z,27.94
2016-06-24T00:17:21.128Z,27.9
2016-06-24T00:18:21.336Z,27.94
2016-06-24T00:19:21.343Z,27.99
2016-06-24T00:20:21.144Z,27.9
2016-06-24T00:21:21.136Z,27.94
2016-06-24T00:22:21.355Z,27.89
2016-06-24T00:23:21.381Z,27.84
2016-06-24T00:24:21.150Z,27.84
2016-06-24T00:25:21.164Z,27.89
2016-06-24T00:26:21.162Z,27.81
2016-06-24T00:27:21.163Z,27.91
2016-06-24T00:28:21.187Z,27.84
2016-06-24T00:29:21.171Z,27.79
2016-06-24T00:30:21.170Z,27.87
2016-06-24T00:31:21.182Z,27.81
2016-06-24T00:32:21.389Z,27.91
2016-06-24T00:33:21.169Z,27.8
2016-06-24T00:34:21.181Z,27.86
2016-06-24T00:35:21.408Z,27.79
2016-06-24T00:36:21.187Z,27.8
2016-06-24T00:37:21.203Z,27.84
2016-06-24T00:38:21.392Z,27.83
2016-06-24T00:39:21.201Z,27.76
2016-06-24T00:40:21.204Z,27.84
2016-06-24T00:41:21.206Z,27.8
2016-06-24T00:42:21.206Z,27.76
2016-06-24T00:43:21.206Z,27.79
2016-06-24T00:44:21.218Z,27.76
2016-06-24T00:45:21.222Z,27.8
2016-06-24T00:46:21.240Z,27.79
2016-06-24T00:47:21.239Z,27.84
2016-06-24T00:48:21.245Z,27.72
2016-06-24T00:49:21.227Z,27.83
2016-06-24T00:50:21.438Z,27.69
2016-06-24T00:51:21.244Z,27.66
2016-06-24T00:52:21.255Z,27.68
2016-06-24T00:53:21.243Z,27.68
2016-06-24T00:54:21.262Z,27.69
2016-06-24T00:55:21.255Z,27.69
2016-06-24T00:56:21.246Z,27.75
2016-06-24T00:57:21.254Z,27.69
2016-06-24T00:58:21.268Z,27.65
2016-06-24T00:59:21.270Z,27.64
2016-06-24T01:00:21.269Z,27.66
2016-06-24T01:01:21.320Z,27.66
2016-06-24T01:02:21.273Z,27.68
2016-06-24T01:03:21.279Z,27.71
2016-06-24T01:04:21.500Z,27.68
2016-06-24T01:05:21.301Z,27.69
2016-06-24T01:06:21.295Z,27.69
2016-06-24T01:07:21.293Z,27.66
2016-06-24T01:08:21.331Z,27.66
2016-06-24T01:09:21.302Z,27.62
2016-06-24T01:10:21.302Z,27.62
2016-06-24T01:11:21.306Z,27.61
2016-06-24T01:12:21.318Z,27.57
2016-06-24T01:13:21.324Z,27.61
2016-06-24T01:14:21.323Z,27.61
2016-06-24T01:15:21.515Z,27.51
2016-06-24T01:16:21.321Z,27.53
2016-06-24T01:17:21.540Z,27.59
2016-06-24T01:18:21.323Z,27.57
2016-06-24T01:19:21.342Z,27.59
2016-06-24T01:20:21.342Z,27.43
2016-06-24T01:21:21.347Z,27.53
2016-06-24T01:22:21.342Z,27.55
2016-06-24T01:23:21.345Z,27.57
2016-06-24T01:24:21.345Z,27.46
2016-06-24T01:25:21.356Z,27.52
2016-06-24T01:26:21.548Z,27.59
2016-06-24T01:27:21.376Z,27.53
2016-06-24T01:28:21.567Z,27.53
2016-06-24T01:29:21.360Z,27.49
2016-06-24T01:30:21.370Z,27.46
2016-06-24T01:31:21.386Z,27.49
2016-06-24T01:32:21.373Z,27.49
2016-06-24T01:33:21.380Z,27.43
2016-06-24T01:34:21.369Z,27.48
2016-06-24T01:35:21.375Z,27.46
2016-06-24T01:36:21.397Z,27.45
2016-06-24T01:37:21.383Z,27.49
2016-06-24T01:38:21.402Z,27.48
2016-06-24T01:39:21.392Z,27.45
2016-06-24T01:40:21.398Z,27.49
2016-06-24T01:41:21.411Z,27.48
2016-06-24T01:42:21.400Z,27.41
2016-06-24T01:43:21.419Z,27.49
2016-06-24T01:44:21.400Z,27.46
2016-06-24T01:45:21.418Z,27.42
2016-06-24T01:46:21.410Z,27.43
2016-06-24T01:47:21.428Z,27.37
2016-06-24T01:48:21.424Z,27.41
2016-06-24T01:49:21.437Z,27.41
2016-06-24T01:50:21.456Z,27.42
2016-06-24T01:51:21.424Z,27.36
2016-06-24T01:52:21.473Z,27.46
2016-06-24T01:53:21.424Z,27.45
2016-06-24T01:54:21.442Z,27.36
2016-06-24T01:55:21.465Z,27.38
2016-06-24T01:56:21.442Z,27.42
2016-06-24T01:57:21.489Z,27.36
2016-06-24T01:58:21.449Z,27.38
2016-06-24T01:59:21.458Z,27.41
2016-06-24T02:00:21.458Z,27.37
2016-06-24T02:01:21.515Z,27.36
2016-06-24T02:02:21.458Z,27.33
2016-06-24T02:03:21.481Z,27.38
2016-06-24T02:04:21.479Z,27.42
2016-06-24T02:05:21.503Z,27.37
2016-06-24T02:06:21.487Z,27.38
2016-06-24T02:07:21.475Z,27.3
2016-06-24T02:08:21.485Z,27.38
2016-06-24T02:09:21.495Z,27.33
2016-06-24T02:10:21.494Z,27.3
2016-06-24T02:11:21.704Z,27.31
2016-06-24T02:12:21.489Z,27.27
2016-06-24T02:13:21.712Z,27.34
2016-06-24T02:14:21.505Z,27.3
2016-06-24T02:15:21.525Z,27.33
2016-06-24T02:16:21.543Z,27.27
2016-06-24T02:17:21.514Z,27.26
2016-06-24T02:18:21.523Z,27.31
2016-06-24T02:19:21.519Z,27.3
2016-06-24T02:20:21.526Z,27.3
2016-06-24T02:21:21.518Z,27.33
2016-06-24T02:22:21.523Z,27.26
2016-06-24T02:23:21.531Z,27.3
2016-06-24T02:24:21.539Z,27.28
2016-06-24T02:25:21.739Z,27.28
2016-06-24T02:26:21.538Z,27.21
2016-06-24T02:27:21.772Z,27.26
2016-06-24T02:28:21.546Z,27.19
2016-06-24T02:29:21.547Z,27.23
2016-06-24T02:30:21.562Z,27.21
2016-06-24T02:31:21.567Z,27.13
2016-06-24T02:32:21.561Z,27.18
2016-06-24T02:33:21.584Z,27.28
2016-06-24T02:34:21.569Z,27.18
2016-06-24T02:35:21.568Z,27.16
2016-06-24T02:36:21.561Z,27.21
2016-06-24T02:37:21.579Z,27.18
2016-06-24T02:38:21.586Z,27.18
2016-06-24T02:39:21.585Z,27.28
2016-06-24T02:40:21.592Z,27.26
2016-06-24T02:41:21.582Z,27.23
2016-06-24T02:42:21.570Z,27.24
2016-06-24T02:43:21.659Z,27.13
2016-06-24T02:44:21.591Z,27.13
2016-06-24T02:45:21.591Z,27.24
2016-06-24T02:46:21.606Z,27.16
2016-06-24T02:47:21.643Z,27.24
2016-06-24T02:48:21.615Z,27.15
2016-06-24T02:49:21.811Z,27.12
2016-06-24T02:50:21.613Z,27.15
2016-06-24T02:51:22.023Z,27.23
2016-06-24T02:52:21.626Z,27.13
2016-06-24T02:53:21.609Z,27.19
2016-06-24T02:54:21.658Z,27.23
2016-06-24T02:55:21.631Z,27.18
2016-06-24T02:56:21.821Z,27.16
2016-06-24T02:57:21.636Z,27.18
2016-06-24T02:58:21.671Z,27.13
2016-06-24T02:59:21.632Z,27.15
2016-06-24T03:00:21.840Z,27.18
2016-06-24T03:01:21.705Z,27.13
2016-06-24T03:02:21.850Z,27.23
2016-06-24T03:03:21.663Z,27.19
2016-06-24T03:04:21.638Z,27.27
2016-06-24T03:05:21.646Z,27.23
2016-06-24T03:06:21.655Z,27.18
2016-06-24T03:07:21.647Z,27.15
2016-06-24T03:08:21.657Z,27.18
2016-06-24T03:09:21.665Z,27.12
2016-06-24T03:10:21.686Z,27.16
2016-06-24T03:11:21.681Z,27.18
2016-06-24T03:12:21.661Z,27.15
2016-06-24T03:13:21.670Z,27.18
2016-06-24T03:14:21.909Z,27.12
2016-06-24T03:15:21.681Z,27.09
2016-06-24T03:16:21.681Z,27.05
2016-06-24T03:17:21.688Z,27.12
2016-06-24T03:18:21.720Z,27.15
2016-06-24T03:19:21.686Z,27.09
2016-06-24T03:20:21.697Z,27.08
2016-06-24T03:21:21.697Z,27
2016-06-24T03:22:21.696Z,27.09
2016-06-24T03:23:21.707Z,27.04
2016-06-24T03:24:21.704Z,27
2016-06-24T03:25:21.930Z,27.05
2016-06-24T03:26:21.733Z,27.06
2016-06-24T03:27:21.730Z,27.09
2016-06-24T03:28:21.924Z,27.11
2016-06-24T03:29:21.925Z,27.15
2016-06-24T03:30:21.735Z,27.09
2016-06-24T03:31:21.733Z,27.12
2016-06-24T03:32:21.742Z,27.12
2016-06-24T03:33:21.730Z,27.09
2016-06-24T03:34:21.944Z,27.08
2016-06-24T03:35:21.746Z,27.09
2016-06-24T03:36:21.755Z,27.08
2016-06-24T03:37:21.743Z,27.08
2016-06-24T03:38:21.746Z,26.96
2016-06-24T03:39:21.753Z,26.94
2016-06-24T03:40:21.793Z,26.94
2016-06-24T03:41:21.754Z,26.9
2016-06-24T03:42:21.753Z,26.99
2016-06-24T03:43:21.771Z,26.99
2016-06-24T03:44:21.757Z,26.97
2016-06-24T03:45:21.777Z,27
2016-06-24T03:46:21.975Z,27.01
2016-06-24T03:47:21.795Z,27.01
2016-06-24T03:48:21.782Z,26.96
2016-06-24T03:49:21.794Z,27.01
2016-06-24T03:50:21.780Z,26.96
2016-06-24T03:51:21.783Z,26.96
2016-06-24T03:52:21.793Z,26.96
2016-06-24T03:53:21.800Z,26.99
2016-06-24T03:54:21.794Z,26.97
2016-06-24T03:55:21.814Z,26.91
2016-06-24T03:56:21.800Z,26.94
2016-06-24T03:57:21.802Z,26.94
2016-06-24T03:58:21.801Z,26.99
2016-06-24T03:59:21.796Z,27.01
2016-06-24T04:00:21.831Z,26.96
2016-06-24T04:01:22.067Z,26.99
2016-06-24T04:02:21.802Z,27.01
2016-06-24T04:03:21.819Z,26.99
2016-06-24T04:04:21.821Z,26.84
2016-06-24T04:05:21.826Z,26.97
2016-06-24T04:06:21.819Z,26.97
2016-06-24T04:07:21.829Z,26.9
2016-06-24T04:08:21.837Z,26.96
2016-06-24T04:09:21.839Z,26.91
2016-06-24T04:10:21.842Z,26.93
2016-06-24T04:11:22.035Z,26.82
2016-06-24T04:12:21.860Z,26.91
2016-06-24T04:13:21.849Z,26.89
2016-06-24T04:14:21.836Z,26.94
2016-06-24T04:15:22.057Z,26.91
2016-06-24T04:16:21.855Z,26.9
2016-06-24T04:17:21.850Z,26.94
2016-06-24T04:18:21.867Z,26.79
2016-06-24T04:19:21.860Z,26.9
2016-06-24T04:20:21.860Z,26.94
2016-06-24T04:21:21.869Z,26.87
2016-06-24T04:22:21.872Z,26.89
2016-06-24T04:23:21.864Z,26.9
2016-06-24T04:24:21.872Z,26.94
2016-06-24T04:25:21.876Z,26.76
2016-06-24T04:26:21.886Z,26.87
2016-06-24T04:27:21.887Z,26.9
2016-06-24T04:28:21.880Z,26.87
2016-06-24T04:29:21.897Z,26.86
2016-06-24T04:30:21.888Z,26.89
2016-06-24T04:31:21.902Z,26.81
2016-06-24T04:32:21.906Z,26.82
2016-06-24T04:33:21.898Z,26.87
2016-06-24T04:34:21.903Z,26.86
2016-06-24T04:35:21.916Z,26.91
2016-06-24T04:36:21.907Z,26.81
2016-06-24T04:37:21.917Z,26.82
2016-06-24T04:38:21.906Z,26.87
2016-06-24T04:39:21.907Z,26.81
2016-06-24T04:40:22.105Z,26.79
2016-06-24T04:41:21.926Z,26.76
2016-06-24T04:42:21.920Z,26.89
2016-06-24T04:43:21.929Z,26.78
2016-06-24T04:44:21.915Z,26.79
2016-06-24T04:45:21.943Z,26.79
2016-06-24T04:46:21.932Z,26.78
2016-06-24T04:47:21.943Z,26.76
2016-06-24T04:48:21.941Z,26.78
2016-06-24T04:49:22.136Z,26.76
2016-06-24T04:50:21.936Z,26.86
2016-06-24T04:51:21.934Z,26.72
2016-06-24T04:52:22.149Z,26.79
2016-06-24T04:53:21.962Z,26.72
2016-06-24T04:54:21.949Z,26.67
2016-06-24T04:55:21.957Z,26.69
2016-06-24T04:56:21.956Z,26.78
2016-06-24T04:57:21.973Z,26.76
2016-06-24T04:58:21.971Z,26.69
2016-06-24T04:59:21.950Z,26.64
2016-06-24T05:00:21.978Z,26.75
2016-06-24T05:01:22.034Z,26.67
2016-06-24T05:02:21.964Z,26.6
2016-06-24T05:03:22.199Z,26.74
2016-06-24T05:04:21.975Z,26.67
2016-06-24T05:05:21.985Z,26.71
2016-06-24T05:06:21.976Z,26.71
2016-06-24T05:07:21.985Z,26.71
2016-06-24T05:08:21.992Z,26.72
2016-06-24T05:09:21.994Z,26.67
2016-06-24T05:10:22.019Z,26.64
2016-06-24T05:11:21.994Z,26.68
2016-06-24T05:12:22.003Z,26.72
2016-06-24T05:13:22.040Z,26.72
2016-06-24T05:14:21.994Z,26.72
2016-06-24T05:15:22.008Z,26.63
2016-06-24T05:16:22.026Z,26.67
2016-06-24T05:17:22.018Z,26.75
2016-06-24T05:18:22.029Z,26.75
2016-06-24T05:19:22.019Z,26.67
2016-06-24T05:20:22.228Z,26.61
2016-06-24T05:21:22.029Z,26.75
2016-06-24T05:22:22.019Z,26.67
2016-06-24T05:23:22.052Z,26.64
2016-06-24T05:24:22.033Z,26.59
2016-06-24T05:25:22.032Z,26.67
2016-06-24T05:26:22.035Z,26.6
2016-06-24T05:27:22.045Z,26.68
2016-06-24T05:28:22.038Z,26.69
2016-06-24T05:29:22.046Z,26.64
2016-06-24T05:30:22.044Z,26.74
2016-06-24T05:31:22.050Z,26.64
2016-06-24T05:32:22.062Z,26.67
2016-06-24T05:33:22.055Z,26.64
2016-06-24T05:34:22.057Z,26.6
2016-06-24T05:35:22.066Z,26.69
2016-06-24T05:36:22.082Z,26.69
2016-06-24T05:37:22.068Z,26.68
2016-06-24T05:38:22.089Z,26.67
2016-06-24T05:39:22.064Z,26.68
2016-06-24T05:40:22.065Z,26.68
2016-06-24T05:41:22.074Z,26.59
2016-06-24T05:42:22.077Z,26.68
2016-06-24T05:43:22.085Z,26.67
2016-06-24T05:44:22.081Z,26.68
2016-06-24T05:45:22.076Z,26.69
2016-06-24T05:46:22.294Z,26.69
2016-06-24T05:47:22.107Z,26.64
2016-06-24T05:48:22.290Z,26.64
2016-06-24T05:49:22.099Z,26.69
2016-06-24T05:50:22.294Z,26.63
2016-06-24T05:51:22.108Z,26.59
2016-06-24T05:52:22.113Z,26.6
2016-06-24T05:53:22.098Z,26.56
2016-06-24T05:54:22.317Z,26.64
2016-06-24T05:55:22.324Z,26.64
2016-06-24T05:56:22.108Z,26.64
2016-06-24T05:57:22.110Z,26.61
2016-06-24T05:58:22.125Z,26.68
2016-06-24T05:59:22.123Z,26.57
2016-06-24T06:00:22.323Z,26.68
2016-06-24T06:01:22.405Z,26.6
2016-06-24T06:02:22.137Z,26.6
2016-06-24T06:03:22.138Z,26.69
2016-06-24T06:04:22.144Z,26.59
2016-06-24T06:05:22.334Z,26.59
2016-06-24T06:06:22.193Z,26.57
2016-06-24T06:07:22.139Z,26.57
2016-06-24T06:08:22.138Z,26.59
2016-06-24T06:09:22.150Z,26.6
2016-06-24T06:10:22.159Z,26.56
2016-06-24T06:11:22.154Z,26.56
2016-06-24T06:12:22.156Z,26.57
2016-06-24T06:13:22.169Z,26.44
2016-06-24T06:14:22.175Z,26.57
2016-06-24T06:15:22.153Z,26.47
2016-06-24T06:16:22.366Z,26.53
2016-06-24T06:17:22.179Z,26.57
2016-06-24T06:18:22.161Z,26.5
2016-06-24T06:19:22.171Z,26.54
2016-06-24T06:20:22.215Z,26.54
2016-06-24T06:21:22.170Z,26.47
2016-06-24T06:22:22.174Z,26.54
2016-06-24T06:23:22.185Z,26.53
2016-06-24T06:24:22.200Z,26.54
2016-06-24T06:25:22.177Z,26.57
2016-06-24T06:26:22.398Z,26.53
2016-06-24T06:27:22.200Z,26.6
2016-06-24T06:28:22.181Z,26.57
2016-06-24T06:29:22.295Z,26.57
2016-06-24T06:30:22.199Z,26.5
2016-06-24T06:31:22.388Z,26.44
2016-06-24T06:32:22.211Z,26.56
2016-06-24T06:33:22.406Z,26.47
2016-06-24T06:34:22.203Z,26.56
2016-06-24T06:35:22.210Z,26.5
2016-06-24T06:36:22.254Z,26.52
2016-06-24T06:37:22.411Z,26.47
2016-06-24T06:38:22.405Z,26.45
2016-06-24T06:39:22.210Z,26.45
2016-06-24T06:40:22.225Z,26.52
2016-06-24T06:41:22.227Z,26.56
2016-06-24T06:42:22.242Z,26.47
2016-06-24T06:43:22.243Z,26.5
2016-06-24T06:44:22.243Z,26.45
2016-06-24T06:45:22.246Z,26.42
2016-06-24T06:46:22.232Z,26.47
2016-06-24T06:47:22.229Z,26.42
2016-06-24T06:48:22.442Z,26.42
2016-06-24T06:49:22.237Z,26.5
2016-06-24T06:50:22.242Z,26.47
2016-06-24T06:51:22.255Z,26.47
2016-06-24T06:52:22.254Z,26.42
2016-06-24T06:53:22.266Z,26.47
2016-06-24T06:54:22.256Z,26.47
2016-06-24T06:55:22.446Z,26.52
2016-06-24T06:56:22.258Z,26.47
2016-06-24T06:57:22.272Z,26.49
2016-06-24T06:58:22.255Z,26.49
2016-06-24T06:59:22.284Z,26.45
2016-06-24T07:00:22.267Z,26.47
2016-06-24T07:01:22.263Z,26.49
2016-06-24T07:02:22.270Z,26.52
2016-06-24T07:03:22.276Z,26.56
2016-06-24T07:04:22.274Z,26.47
2016-06-24T07:05:22.278Z,26.45
2016-06-24T07:06:22.292Z,26.53
2016-06-24T07:07:22.293Z,26.53
2016-06-24T07:08:22.286Z,26.6
2016-06-24T07:09:22.279Z,26.6
2016-06-24T07:10:22.285Z,26.57
2016-06-24T07:11:22.299Z,26.56
2016-06-24T07:12:22.303Z,26.47
2016-06-24T07:13:22.307Z,26.45
2016-06-24T07:14:22.336Z,26.52
2016-06-24T07:15:22.333Z,26.5
2016-06-24T07:16:22.302Z,26.49
2016-06-24T07:17:22.316Z,26.6
2016-06-24T07:18:22.335Z,26.57
2016-06-24T07:19:22.310Z,26.59
2016-06-24T07:20:22.329Z,26.54
2016-06-24T07:21:22.326Z,26.57
2016-06-24T07:22:22.348Z,26.56
2016-06-24T07:23:22.655Z,26.61
2016-06-24T07:24:22.337Z,26.64
2016-06-24T07:25:22.327Z,26.61
2016-06-24T07:26:22.055Z,26.61
2016-06-24T07:27:22.340Z,26.61
2016-06-24T07:28:22.345Z,26.56
2016-06-24T07:29:22.351Z,26.64
2016-06-24T07:30:22.340Z,26.6
2016-06-24T07:31:22.551Z,26.67
2016-06-24T07:32:22.343Z,26.6
2016-06-24T07:33:22.349Z,26.63
2016-06-24T07:34:22.399Z,26.64
2016-06-24T07:35:22.351Z,26.61
2016-06-24T07:36:22.374Z,26.61
2016-06-24T07:37:22.362Z,26.57
2016-06-24T07:38:22.362Z,26.64
2016-06-24T07:39:22.559Z,26.59
2016-06-24T07:40:22.579Z,26.57
2016-06-24T07:41:22.370Z,26.61
2016-06-24T07:42:22.359Z,26.63
2016-06-24T07:43:22.384Z,26.61
2016-06-24T07:44:22.376Z,26.64
2016-06-24T07:45:22.587Z,26.64
2016-06-24T07:46:22.383Z,26.68
2016-06-24T07:47:22.402Z,26.67
2016-06-24T07:48:22.586Z,26.67
2016-06-24T07:49:22.382Z,26.67
2016-06-24T07:50:22.395Z,26.68
2016-06-24T07:51:22.409Z,26.63
2016-06-24T07:52:22.395Z,26.67
2016-06-24T07:53:22.390Z,26.63
2016-06-24T07:54:22.409Z,26.63
2016-06-24T07:55:22.427Z,26.69
2016-06-24T07:56:22.393Z,26.68
2016-06-24T07:57:22.403Z,26.67
2016-06-24T07:58:22.421Z,26.63
2016-06-24T07:59:22.413Z,26.64
2016-06-24T08:00:22.407Z,26.63
2016-06-24T08:01:22.628Z,26.67
2016-06-24T08:02:22.416Z,26.6
2016-06-24T08:03:22.431Z,26.61
2016-06-24T08:04:22.430Z,26.67
2016-06-24T08:05:22.541Z,26.68
2016-06-24T08:06:22.431Z,26.74
2016-06-24T08:07:22.444Z,26.75
2016-06-24T08:08:22.431Z,26.68
2016-06-24T08:09:22.636Z,26.63
2016-06-24T08:10:22.430Z,26.72
2016-06-24T08:11:22.653Z,26.67
2016-06-24T08:12:22.456Z,26.71
2016-06-24T08:13:22.439Z,26.75
2016-06-24T08:14:22.444Z,26.71
2016-06-24T08:15:22.441Z,26.68
2016-06-24T08:16:22.449Z,26.78
2016-06-24T08:17:22.649Z,26.68
2016-06-24T08:18:22.460Z,26.72
2016-06-24T08:19:22.460Z,26.75
2016-06-24T08:20:22.677Z,26.78
2016-06-24T08:21:22.447Z,26.69
2016-06-24T08:22:22.485Z,26.75
2016-06-24T08:23:22.542Z,26.79
2016-06-24T08:24:22.661Z,26.78
2016-06-24T08:25:22.480Z,26.71
2016-06-24T08:26:22.478Z,26.79
2016-06-24T08:27:22.490Z,26.79
2016-06-24T08:28:22.483Z,26.81
2016-06-24T08:29:22.486Z,26.86
2016-06-24T08:30:22.486Z,26.84
2016-06-24T08:31:22.486Z,26.87
2016-06-24T08:32:22.482Z,26.9
2016-06-24T08:33:22.481Z,26.84
2016-06-24T08:34:22.516Z,26.82
2016-06-24T08:35:22.489Z,26.81
2016-06-24T08:36:22.493Z,26.86
2016-06-24T08:37:22.508Z,26.86
2016-06-24T08:38:22.518Z,26.81
2016-06-24T08:39:22.508Z,26.87
2016-06-24T08:40:22.505Z,26.86
2016-06-24T08:41:22.503Z,26.87
2016-06-24T08:42:22.515Z,26.89
2016-06-24T08:43:22.520Z,26.93
2016-06-24T08:44:22.513Z,26.94
2016-06-24T08:45:22.520Z,26.89
2016-06-24T08:46:22.523Z,26.93
2016-06-24T08:47:22.524Z,26.9
2016-06-24T08:48:22.530Z,26.86
2016-06-24T08:49:22.533Z,26.97
2016-06-24T08:50:22.532Z,26.94
2016-06-24T08:51:22.561Z,26.86
2016-06-24T08:52:22.540Z,26.97
2016-06-24T08:53:22.541Z,26.97
2016-06-24T08:54:22.545Z,26.99
2016-06-24T08:55:22.550Z,26.9
2016-06-24T08:56:22.756Z,27
2016-06-24T08:57:22.555Z,26.96
2016-06-24T08:58:22.547Z,26.93
2016-06-24T08:59:22.554Z,26.99
2016-06-24T09:00:22.568Z,26.93
2016-06-24T09:01:22.555Z,27.01
2016-06-24T09:02:22.568Z,26.96
2016-06-24T09:03:22.600Z,26.96
2016-06-24T09:04:22.568Z,26.97
2016-06-24T09:05:22.562Z,27
2016-06-24T09:06:22.586Z,26.94
2016-06-24T09:07:22.577Z,26.97
2016-06-24T09:08:22.590Z,26.99
2016-06-24T09:09:22.588Z,27.05
2016-06-24T09:10:22.589Z,27.09
2016-06-24T09:11:22.801Z,27.12
2016-06-24T09:12:22.802Z,27.12
2016-06-24T09:13:22.592Z,27.11
2016-06-24T09:14:22.599Z,27.04
2016-06-24T09:15:22.604Z,27.11
2016-06-24T09:16:22.615Z,27.13
2016-06-24T09:17:22.619Z,27.12
2016-06-24T09:18:22.607Z,27.11
2016-06-24T09:19:22.605Z,27.19
2016-06-24T09:20:22.810Z,27.12
2016-06-24T09:21:22.829Z,27.16
2016-06-24T09:22:22.810Z,27.12
2016-06-24T09:23:22.612Z,27.13
2016-06-24T09:24:22.633Z,27.13
2016-06-24T09:25:22.622Z,27.19
2016-06-24T09:26:22.833Z,27.16
2016-06-24T09:27:22.637Z,27.19
2016-06-24T09:28:22.630Z,27.28
2016-06-24T09:29:22.634Z,27.3
2016-06-24T09:30:22.635Z,27.31
2016-06-24T09:31:22.650Z,27.28
2016-06-24T09:32:22.643Z,27.37
2016-06-24T09:33:22.641Z,27.28
2016-06-24T09:34:22.643Z,27.37
2016-06-24T09:35:22.849Z,27.38
2016-06-24T09:36:22.649Z,27.37
2016-06-24T09:37:22.655Z,27.42
2016-06-24T09:38:23.155Z,27.41
2016-06-24T09:39:22.683Z,27.37
2016-06-24T09:40:22.858Z,27.41
2016-06-24T09:41:22.686Z,27.41
2016-06-24T09:42:22.666Z,27.38
2016-06-24T09:43:22.672Z,27.43
2016-06-24T09:44:22.667Z,27.42
2016-06-24T09:45:22.686Z,27.42
2016-06-24T09:46:22.684Z,27.37
2016-06-24T09:47:22.688Z,27.43
2016-06-24T09:48:22.683Z,27.37
2016-06-24T09:49:22.697Z,27.42
2016-06-24T09:50:22.723Z,27.51
2016-06-24T09:51:22.691Z,27.52
2016-06-24T09:52:22.691Z,27.46
2016-06-24T09:53:22.683Z,27.46
2016-06-24T09:54:22.702Z,27.46
2016-06-24T09:55:22.755Z,27.48
2016-06-24T09:56:22.719Z,27.53
2016-06-24T09:57:22.709Z,27.46
2016-06-24T09:58:22.907Z,27.49
2016-06-24T09:59:22.920Z,27.51
2016-06-24T10:00:23.128Z,27.51
2016-06-24T10:01:22.715Z,27.51
2016-06-24T10:02:22.721Z,27.61
2016-06-24T10:03:22.746Z,27.51
2016-06-24T10:04:22.758Z,27.52
2016-06-24T10:05:22.738Z,27.57
2016-06-24T10:06:22.926Z,27.61
2016-06-24T10:07:22.759Z,27.55
2016-06-24T10:08:22.743Z,27.66
2016-06-24T10:09:22.940Z,27.61
2016-06-24T10:10:22.744Z,27.61
2016-06-24T10:11:22.748Z,27.62
2016-06-24T10:12:22.766Z,27.57
2016-06-24T10:13:22.755Z,27.65
2016-06-24T10:14:22.969Z,27.71
2016-06-24T10:15:22.965Z,27.69
2016-06-24T10:16:22.771Z,27.69
2016-06-24T10:17:22.781Z,27.68
2016-06-24T10:18:22.762Z,27.66
2016-06-24T10:19:22.789Z,27.69
2016-06-24T10:20:22.811Z,27.62
2016-06-24T10:21:22.827Z,27.68
2016-06-24T10:22:22.786Z,27.62
2016-06-24T10:23:22.795Z,27.69
2016-06-24T10:24:22.777Z,27.65
2016-06-24T10:25:22.998Z,27.68
2016-06-24T10:26:22.789Z,27.68
2016-06-24T10:27:22.784Z,27.68
2016-06-24T10:28:22.791Z,27.75
2016-06-24T10:29:22.799Z,27.68
2016-06-24T10:30:22.810Z,27.69
2016-06-24T10:31:22.810Z,27.72
2016-06-24T10:32:22.814Z,27.65
2016-06-24T10:33:22.830Z,27.71
2016-06-24T10:34:22.819Z,27.71
2016-06-24T10:35:22.824Z,27.71
2016-06-24T10:36:22.835Z,27.68
2016-06-24T10:37:22.823Z,27.68
2016-06-24T10:38:22.838Z,27.74
2016-06-24T10:39:22.838Z,27.71
2016-06-24T10:40:22.841Z,27.72
2016-06-24T10:41:22.839Z,27.72
2016-06-24T10:42:22.856Z,27.75
2016-06-24T10:43:22.835Z,27.76
2016-06-24T10:44:23.050Z,27.79
2016-06-24T10:45:22.845Z,27.81
2016-06-24T10:46:22.861Z,27.83
2016-06-24T10:47:22.858Z,27.8
2016-06-24T10:48:22.865Z,27.83
2016-06-24T10:49:22.879Z,27.83
2016-06-24T10:50:23.075Z,27.84
2016-06-24T10:51:22.853Z,27.81
2016-06-24T10:52:22.868Z,27.83
2016-06-24T10:53:22.865Z,27.81
2016-06-24T10:54:22.881Z,27.84
2016-06-24T10:55:23.070Z,27.94
2016-06-24T10:56:22.883Z,27.86
2016-06-24T10:57:22.880Z,27.93
2016-06-24T10:58:22.890Z,27.91
2016-06-24T10:59:22.882Z,27.87
2016-06-24T11:00:22.889Z,27.93
2016-06-24T11:01:22.893Z,27.98
2016-06-24T11:02:22.893Z,27.9
2016-06-24T11:03:22.902Z,27.9
2016-06-24T11:04:22.899Z,27.94
2016-06-24T11:05:22.912Z,27.93
2016-06-24T11:06:22.909Z,27.91
2016-06-24T11:07:22.910Z,28.05
2016-06-24T11:08:22.909Z,27.93
2016-06-24T11:09:22.930Z,27.9
2016-06-24T11:10:22.910Z,27.96
2016-06-24T11:11:22.919Z,27.91
2016-06-24T11:12:22.917Z,27.96
2016-06-24T11:13:22.922Z,27.94
2016-06-24T11:14:22.942Z,27.87
2016-06-24T11:15:22.941Z,27.98
2016-06-24T11:16:22.943Z,27.93
2016-06-24T11:17:22.940Z,28.05
2016-06-24T11:18:22.952Z,27.9
2016-06-24T11:19:22.938Z,27.89
2016-06-24T11:20:22.945Z,28.01
2016-06-24T11:21:22.960Z,28.05
2016-06-24T11:22:22.962Z,28.06
2016-06-24T11:23:22.962Z,28.11
2016-06-24T11:24:22.962Z,28.14
2016-06-24T11:25:23.002Z,28.09
2016-06-24T11:26:22.991Z,28.12
2016-06-24T11:27:22.971Z,28.18
2016-06-24T11:28:22.963Z,28.16
2016-06-24T11:29:22.987Z,28.16
2016-06-24T11:30:22.971Z,28.2
2016-06-24T11:31:23.222Z,28.17
2016-06-24T11:32:22.986Z,28.18
2016-06-24T11:33:22.975Z,28.24
2016-06-24T11:34:22.994Z,28.17
2016-06-24T11:35:22.977Z,28.23
2016-06-24T11:36:23.016Z,28.23
2016-06-24T11:37:23.006Z,28.2
2016-06-24T11:38:23.007Z,28.31
2016-06-24T11:39:23.309Z,28.27
2016-06-24T11:40:23.138Z,28.3
2016-06-24T11:41:23.118Z,28.31
2016-06-24T11:42:23.038Z,28.35
2016-06-24T11:43:23.021Z,28.24
2016-06-24T11:44:23.480Z,28.33
2016-06-24T11:45:23.149Z,28.24
2016-06-24T11:46:23.269Z,28.31
2016-06-24T11:47:23.511Z,28.26
2016-06-24T11:48:23.038Z,28.27
2016-06-24T11:49:23.090Z,28.3
2016-06-24T11:50:23.036Z,28.31
2016-06-24T11:51:23.260Z,28.28
2016-06-24T11:52:23.258Z,28.3
2016-06-24T11:53:23.055Z,28.28
2016-06-24T11:54:23.266Z,28.31
2016-06-24T11:55:23.060Z,28.3
2016-06-24T11:56:23.069Z,28.31
2016-06-24T11:57:23.273Z,28.28
2016-06-24T11:58:23.073Z,28.43
2016-06-24T11:59:23.119Z,28.28
2016-06-24T12:00:23.069Z,28.38
2016-06-24T12:01:23.080Z,28.45
2016-06-24T12:02:23.086Z,28.39
2016-06-24T12:03:23.091Z,28.41
2016-06-24T12:04:23.089Z,28.39
2016-06-24T12:05:23.099Z,28.39
2016-06-24T12:06:23.095Z,28.41
2016-06-24T12:07:23.091Z,28.48
2016-06-24T12:08:23.095Z,28.53
2016-06-24T12:09:23.295Z,28.43
2016-06-24T12:10:23.109Z,28.46
2016-06-24T12:11:23.111Z,28.42
2016-06-24T12:12:23.120Z,28.48
2016-06-24T12:13:23.115Z,28.43
2016-06-24T12:14:23.324Z,28.45
2016-06-24T12:15:23.128Z,28.42
2016-06-24T12:16:23.129Z,28.43
2016-06-24T12:17:23.337Z,28.42
2016-06-24T12:18:23.141Z,28.42
2016-06-24T12:19:23.141Z,28.45
2016-06-24T12:20:23.147Z,28.46
2016-06-24T12:21:23.151Z,28.42
2016-06-24T12:22:23.151Z,28.46
2016-06-24T12:23:23.343Z,28.49
2016-06-24T12:24:23.159Z,28.51
2016-06-24T12:25:23.164Z,28.45
2016-06-24T12:26:23.153Z,28.46
2016-06-24T12:27:23.194Z,28.54
2016-06-24T12:28:23.162Z,28.55
2016-06-24T12:29:23.178Z,28.55
2016-06-24T12:30:23.175Z,28.49
2016-06-24T12:31:23.384Z,28.53
2016-06-24T12:32:23.173Z,28.51
2016-06-24T12:33:23.183Z,28.55
2016-06-24T12:34:23.192Z,28.58
2016-06-24T12:35:23.197Z,28.54
2016-06-24T12:36:23.201Z,28.58
2016-06-24T12:37:23.211Z,28.55
2016-06-24T12:38:23.195Z,28.61
2016-06-24T12:39:23.213Z,28.57
2016-06-24T12:40:23.208Z,28.64
2016-06-24T12:41:23.206Z,28.6
2016-06-24T12:42:23.226Z,28.58
2016-06-24T12:43:23.216Z,28.57
2016-06-24T12:44:23.429Z,28.6
2016-06-24T12:45:23.234Z,28.6
2016-06-24T12:46:23.236Z,28.58
2016-06-24T12:47:23.229Z,28.72
2016-06-24T12:48:23.233Z,28.67
2016-06-24T12:49:23.243Z,28.63
2016-06-24T12:50:23.243Z,28.67
2016-06-24T12:51:23.237Z,28.7
2016-06-24T12:52:23.265Z,28.7
2016-06-24T12:53:23.444Z,28.65
2016-06-24T12:54:23.294Z,28.7
2016-06-24T12:55:23.261Z,28.7